sensor_id;sensor_type;location;lat;lon;timestamp;temperature;humidity
40600;DHT22;26309;50.924;4.754;2023-05-07T00:00:46;15.00;99.90
40600;DHT22;26309;50.924;4.754;2023-05-07T00:03:12;15.10;99.90
40600;DHT22;26309;50.924;4.754;2023-05-07T00:05:39;15.20;99.90
40600;DHT22;26309;50.924;4.754;2023-05-07T00:08:05;15.30;99.90
40600;DHT22;26309;50.924;4.754;2023-05-07T00:10:31;15.30;99.90
40600;DHT22;26309;50.924;4.754;2023-05-07T00:12:56;15.40;99.90
40600;DHT22;26309;50.924;4.754;2023-05-07T00:15:22;15.30;99.90
40600;DHT22;26309;50.924;4.754;2023-05-07T00:17:48;15.30;99.90
40600;DHT22;26309;50.924;4.754;2023-05-07T00:20:14;15.20;99.90
40600;DHT22;26309;50.924;4.754;2023-05-07T00:22:40;15.20;99.90
40600;DHT22;26309;50.924;4.754;2023-05-07T00:25:06;15.20;99.90
40600;DHT22;26309;50.924;4.754;2023-05-07T00:27:32;15.20;99.90
40600;DHT22;26309;50.924;4.754;2023-05-07T00:29:58;15.40;99.90
40600;DHT22;26309;50.924;4.754;2023-05-07T00:32:24;15.40;99.90
40600;DHT22;26309;50.924;4.754;2023-05-07T00:34:50;15.50;99.90
40600;DHT22;26309;50.924;4.754;2023-05-07T00:37:16;15.40;99.90
40600;DHT22;26309;50.924;4.754;2023-05-07T00:39:42;15.40;99.90
40600;DHT22;26309;50.924;4.754;2023-05-07T00:42:08;15.40;99.90
40600;DHT22;26309;50.924;4.754;2023-05-07T00:44:34;15.30;99.90
40600;DHT22;26309;50.924;4.754;2023-05-07T00:47:01;15.30;99.90
40600;DHT22;26309;50.924;4.754;2023-05-07T00:49:39;15.30;99.90
40600;DHT22;26309;50.924;4.754;2023-05-07T00:52:07;15.20;99.90
40600;DHT22;26309;50.924;4.754;2023-05-07T00:54:38;15.30;99.90
40600;DHT22;26309;50.924;4.754;2023-05-07T00:57:06;15.20;99.90
40600;DHT22;26309;50.924;4.754;2023-05-07T00:59:32;15.30;99.90
40600;DHT22;26309;50.924;4.754;2023-05-07T01:01:59;15.20;99.90
40600;DHT22;26309;50.924;4.754;2023-05-07T01:04:25;15.30;99.90
40600;DHT22;26309;50.924;4.754;2023-05-07T01:06:52;15.30;99.90
40600;DHT22;26309;50.924;4.754;2023-05-07T01:09:19;15.30;99.90
40600;DHT22;26309;50.924;4.754;2023-05-07T01:11:47;15.20;99.90
40600;DHT22;26309;50.924;4.754;2023-05-07T01:14:14;15.10;99.90
40600;DHT22;26309;50.924;4.754;2023-05-07T01:16:40;15.10;99.90
40600;DHT22;26309;50.924;4.754;2023-05-07T01:19:08;15.10;99.90
40600;DHT22;26309;50.924;4.754;2023-05-07T01:21:37;15.10;99.90
40600;DHT22;26309;50.924;4.754;2023-05-07T01:24:04;15.10;99.90
40600;DHT22;26309;50.924;4.754;2023-05-07T01:26:30;15.10;99.90
40600;DHT22;26309;50.924;4.754;2023-05-07T01:28:56;15.10;99.90
40600;DHT22;26309;50.924;4.754;2023-05-07T01:31:23;15.10;99.90
40600;DHT22;26309;50.924;4.754;2023-05-07T01:33:51;15.20;99.90
40600;DHT22;26309;50.924;4.754;2023-05-07T01:36:18;15.20;99.90
40600;DHT22;26309;50.924;4.754;2023-05-07T01:38:45;15.20;99.90
40600;DHT22;26309;50.924;4.754;2023-05-07T01:41:12;15.30;99.90
40600;DHT22;26309;50.924;4.754;2023-05-07T01:43:40;15.40;99.90
40600;DHT22;26309;50.924;4.754;2023-05-07T01:46:08;15.30;99.90
40600;DHT22;26309;50.924;4.754;2023-05-07T01:48:35;15.40;99.90
40600;DHT22;26309;50.924;4.754;2023-05-07T01:51:02;15.40;99.90
40600;DHT22;26309;50.924;4.754;2023-05-07T01:53:28;15.40;99.90
40600;DHT22;26309;50.924;4.754;2023-05-07T01:55:54;15.30;99.90
40600;DHT22;26309;50.924;4.754;2023-05-07T01:58:20;15.30;99.90
40600;DHT22;26309;50.924;4.754;2023-05-07T02:00:46;15.40;99.90
40600;DHT22;26309;50.924;4.754;2023-05-07T02:03:12;15.40;99.90
40600;DHT22;26309;50.924;4.754;2023-05-07T02:05:37;15.50;99.90
40600;DHT22;26309;50.924;4.754;2023-05-07T02:08:03;15.30;99.90
40600;DHT22;26309;50.924;4.754;2023-05-07T02:10:29;15.40;99.90
40600;DHT22;26309;50.924;4.754;2023-05-07T02:12:55;15.30;99.90
40600;DHT22;26309;50.924;4.754;2023-05-07T02:15:21;15.30;99.90
40600;DHT22;26309;50.924;4.754;2023-05-07T02:18:07;15.30;99.90
40600;DHT22;26309;50.924;4.754;2023-05-07T02:20:33;15.40;99.90
40600;DHT22;26309;50.924;4.754;2023-05-07T02:22:59;15.30;99.90
40600;DHT22;26309;50.924;4.754;2023-05-07T02:25:25;15.40;99.90
40600;DHT22;26309;50.924;4.754;2023-05-07T02:27:54;15.40;99.90
40600;DHT22;26309;50.924;4.754;2023-05-07T02:30:20;15.40;99.90
40600;DHT22;26309;50.924;4.754;2023-05-07T02:32:50;15.30;99.90
40600;DHT22;26309;50.924;4.754;2023-05-07T02:35:16;15.40;99.90
40600;DHT22;26309;50.924;4.754;2023-05-07T02:37:42;15.40;99.90
40600;DHT22;26309;50.924;4.754;2023-05-07T02:40:08;15.40;99.90
40600;DHT22;26309;50.924;4.754;2023-05-07T02:42:34;15.50;99.90
40600;DHT22;26309;50.924;4.754;2023-05-07T02:45:00;15.40;99.90
40600;DHT22;26309;50.924;4.754;2023-05-07T02:47:26;15.40;99.90
40600;DHT22;26309;50.924;4.754;2023-05-07T02:49:55;15.40;99.90
40600;DHT22;26309;50.924;4.754;2023-05-07T02:52:22;15.40;99.90
40600;DHT22;26309;50.924;4.754;2023-05-07T02:54:48;15.50;99.90
40600;DHT22;26309;50.924;4.754;2023-05-07T02:57:13;15.60;99.90
40600;DHT22;26309;50.924;4.754;2023-05-07T02:59:40;15.50;99.90
40600;DHT22;26309;50.924;4.754;2023-05-07T03:02:06;15.30;99.90
40600;DHT22;26309;50.924;4.754;2023-05-07T03:04:31;15.20;99.90
40600;DHT22;26309;50.924;4.754;2023-05-07T03:06:57;15.10;99.90
40600;DHT22;26309;50.924;4.754;2023-05-07T03:09:23;15.10;99.90
40600;DHT22;26309;50.924;4.754;2023-05-07T03:11:49;15.10;99.90
40600;DHT22;26309;50.924;4.754;2023-05-07T03:14:15;15.00;99.90
40600;DHT22;26309;50.924;4.754;2023-05-07T03:16:41;15.00;99.90
40600;DHT22;26309;50.924;4.754;2023-05-07T03:19:10;15.10;99.90
40600;DHT22;26309;50.924;4.754;2023-05-07T03:21:36;15.20;99.90
40600;DHT22;26309;50.924;4.754;2023-05-07T03:24:01;15.20;99.90
40600;DHT22;26309;50.924;4.754;2023-05-07T03:26:27;15.20;99.90
40600;DHT22;26309;50.924;4.754;2023-05-07T03:28:53;15.40;99.90
40600;DHT22;26309;50.924;4.754;2023-05-07T03:31:19;15.40;99.90
40600;DHT22;26309;50.924;4.754;2023-05-07T03:33:56;15.50;99.90
40600;DHT22;26309;50.924;4.754;2023-05-07T03:36:22;15.50;99.90
40600;DHT22;26309;50.924;4.754;2023-05-07T03:38:49;15.50;99.90
40600;DHT22;26309;50.924;4.754;2023-05-07T03:41:15;15.60;99.90
40600;DHT22;26309;50.924;4.754;2023-05-07T03:43:41;15.60;99.90
40600;DHT22;26309;50.924;4.754;2023-05-07T03:46:07;15.60;99.90
40600;DHT22;26309;50.924;4.754;2023-05-07T03:48:33;15.60;99.90
40600;DHT22;26309;50.924;4.754;2023-05-07T03:51:00;15.60;99.90
40600;DHT22;26309;50.924;4.754;2023-05-07T03:53:26;15.60;99.90
40600;DHT22;26309;50.924;4.754;2023-05-07T03:55:52;15.50;99.90
40600;DHT22;26309;50.924;4.754;2023-05-07T03:58:18;15.60;99.90
40600;DHT22;26309;50.924;4.754;2023-05-07T04:00:44;15.40;99.90
40600;DHT22;26309;50.924;4.754;2023-05-07T04:03:09;15.30;99.90
40600;DHT22;26309;50.924;4.754;2023-05-07T04:05:35;15.40;99.90
40600;DHT22;26309;50.924;4.754;2023-05-07T04:08:01;15.40;99.90
40600;DHT22;26309;50.924;4.754;2023-05-07T04:10:30;15.50;99.90
40600;DHT22;26309;50.924;4.754;2023-05-07T04:12:56;15.50;99.90
40600;DHT22;26309;50.924;4.754;2023-05-07T04:15:23;15.60;99.90
40600;DHT22;26309;50.924;4.754;2023-05-07T04:17:49;15.60;99.90
40600;DHT22;26309;50.924;4.754;2023-05-07T04:20:16;15.60;99.90
40600;DHT22;26309;50.924;4.754;2023-05-07T04:22:44;15.50;99.90
40600;DHT22;26309;50.924;4.754;2023-05-07T04:25:10;15.50;99.90
40600;DHT22;26309;50.924;4.754;2023-05-07T04:27:36;15.60;99.90
40600;DHT22;26309;50.924;4.754;2023-05-07T04:30:03;15.60;99.90
40600;DHT22;26309;50.924;4.754;2023-05-07T04:32:29;15.50;99.90
40600;DHT22;26309;50.924;4.754;2023-05-07T04:34:58;15.50;99.90
40600;DHT22;26309;50.924;4.754;2023-05-07T04:37:25;15.50;99.90
40600;DHT22;26309;50.924;4.754;2023-05-07T04:39:51;15.60;99.90
40600;DHT22;26309;50.924;4.754;2023-05-07T04:42:18;15.50;99.90
40600;DHT22;26309;50.924;4.754;2023-05-07T04:44:44;15.50;99.90
40600;DHT22;26309;50.924;4.754;2023-05-07T04:47:11;15.60;99.90
40600;DHT22;26309;50.924;4.754;2023-05-07T04:49:38;15.60;99.90
40600;DHT22;26309;50.924;4.754;2023-05-07T04:52:04;15.50;99.90
40600;DHT22;26309;50.924;4.754;2023-05-07T04:54:30;15.50;99.90
40600;DHT22;26309;50.924;4.754;2023-05-07T04:56:56;15.50;99.90
40600;DHT22;26309;50.924;4.754;2023-05-07T04:59:22;15.50;99.90
40600;DHT22;26309;50.924;4.754;2023-05-07T05:01:48;15.60;99.90
40600;DHT22;26309;50.924;4.754;2023-05-07T05:04:13;15.80;99.90
40600;DHT22;26309;50.924;4.754;2023-05-07T05:06:40;16.00;99.90
40600;DHT22;26309;50.924;4.754;2023-05-07T05:09:07;16.20;99.90
40600;DHT22;26309;50.924;4.754;2023-05-07T05:11:32;16.10;99.90
40600;DHT22;26309;50.924;4.754;2023-05-07T05:13:59;16.00;99.90
40600;DHT22;26309;50.924;4.754;2023-05-07T05:16:26;15.90;99.90
40600;DHT22;26309;50.924;4.754;2023-05-07T05:18:52;15.70;99.90
40600;DHT22;26309;50.924;4.754;2023-05-07T05:21:20;15.60;99.90
40600;DHT22;26309;50.924;4.754;2023-05-07T05:23:46;15.70;99.90
40600;DHT22;26309;50.924;4.754;2023-05-07T05:26:12;15.90;99.90
40600;DHT22;26309;50.924;4.754;2023-05-07T05:28:38;15.90;99.90
40600;DHT22;26309;50.924;4.754;2023-05-07T05:31:04;15.80;99.90
40600;DHT22;26309;50.924;4.754;2023-05-07T05:33:30;15.80;99.90
40600;DHT22;26309;50.924;4.754;2023-05-07T05:35:56;15.80;99.90
40600;DHT22;26309;50.924;4.754;2023-05-07T05:38:22;15.90;99.90
40600;DHT22;26309;50.924;4.754;2023-05-07T05:40:47;16.00;99.90
40600;DHT22;26309;50.924;4.754;2023-05-07T05:43:14;16.10;99.90
40600;DHT22;26309;50.924;4.754;2023-05-07T05:45:39;16.10;99.90
40600;DHT22;26309;50.924;4.754;2023-05-07T05:48:05;15.90;99.90
40600;DHT22;26309;50.924;4.754;2023-05-07T05:50:32;15.90;99.90
40600;DHT22;26309;50.924;4.754;2023-05-07T05:52:57;15.90;99.90
40600;DHT22;26309;50.924;4.754;2023-05-07T05:55:23;15.90;99.90
40600;DHT22;26309;50.924;4.754;2023-05-07T05:57:50;16.10;99.90
40600;DHT22;26309;50.924;4.754;2023-05-07T06:00:16;16.10;99.90
40600;DHT22;26309;50.924;4.754;2023-05-07T06:02:42;16.30;99.90
40600;DHT22;26309;50.924;4.754;2023-05-07T06:05:08;16.40;99.90
40600;DHT22;26309;50.924;4.754;2023-05-07T06:07:35;16.50;99.90
40600;DHT22;26309;50.924;4.754;2023-05-07T06:10:01;16.70;99.90
40600;DHT22;26309;50.924;4.754;2023-05-07T06:12:27;16.90;99.90
40600;DHT22;26309;50.924;4.754;2023-05-07T06:14:53;17.10;99.90
40600;DHT22;26309;50.924;4.754;2023-05-07T06:17:19;17.30;99.90
40600;DHT22;26309;50.924;4.754;2023-05-07T06:19:44;17.40;99.90
40600;DHT22;26309;50.924;4.754;2023-05-07T06:22:10;17.50;99.90
40600;DHT22;26309;50.924;4.754;2023-05-07T06:24:36;17.70;99.90
40600;DHT22;26309;50.924;4.754;2023-05-07T06:27:02;17.80;99.90
40600;DHT22;26309;50.924;4.754;2023-05-07T06:29:28;18.00;99.90
40600;DHT22;26309;50.924;4.754;2023-05-07T06:31:55;18.00;99.90
40600;DHT22;26309;50.924;4.754;2023-05-07T06:34:21;18.20;99.90
40600;DHT22;26309;50.924;4.754;2023-05-07T06:36:47;18.20;99.90
40600;DHT22;26309;50.924;4.754;2023-05-07T06:39:13;18.10;99.90
40600;DHT22;26309;50.924;4.754;2023-05-07T06:41:40;18.30;99.90
40600;DHT22;26309;50.924;4.754;2023-05-07T06:44:06;18.40;99.90
40600;DHT22;26309;50.924;4.754;2023-05-07T06:46:32;18.60;99.90
40600;DHT22;26309;50.924;4.754;2023-05-07T06:48:57;18.60;99.90
40600;DHT22;26309;50.924;4.754;2023-05-07T06:51:24;18.80;99.90
40600;DHT22;26309;50.924;4.754;2023-05-07T06:53:49;18.80;99.90
40600;DHT22;26309;50.924;4.754;2023-05-07T06:56:15;18.60;99.90
40600;DHT22;26309;50.924;4.754;2023-05-07T06:58:41;18.20;99.90
40600;DHT22;26309;50.924;4.754;2023-05-07T07:01:07;18.00;99.90
40600;DHT22;26309;50.924;4.754;2023-05-07T07:03:33;17.90;99.90
40600;DHT22;26309;50.924;4.754;2023-05-07T07:05:59;17.80;99.90
40600;DHT22;26309;50.924;4.754;2023-05-07T07:08:25;17.80;99.90
40600;DHT22;26309;50.924;4.754;2023-05-07T07:10:50;17.50;99.90
40600;DHT22;26309;50.924;4.754;2023-05-07T07:13:16;17.50;99.90
40600;DHT22;26309;50.924;4.754;2023-05-07T07:15:43;17.30;99.90
40600;DHT22;26309;50.924;4.754;2023-05-07T07:18:09;17.30;99.90
40600;DHT22;26309;50.924;4.754;2023-05-07T07:20:35;17.40;99.90
40600;DHT22;26309;50.924;4.754;2023-05-07T07:23:01;17.70;99.90
40600;DHT22;26309;50.924;4.754;2023-05-07T07:25:27;17.60;99.90
40600;DHT22;26309;50.924;4.754;2023-05-07T07:27:52;17.70;99.90
40600;DHT22;26309;50.924;4.754;2023-05-07T07:30:18;17.80;99.90
40600;DHT22;26309;50.924;4.754;2023-05-07T07:32:44;17.70;99.90
40600;DHT22;26309;50.924;4.754;2023-05-07T07:35:10;17.80;99.90
40600;DHT22;26309;50.924;4.754;2023-05-07T07:37:36;18.00;99.90
40600;DHT22;26309;50.924;4.754;2023-05-07T07:40:02;18.20;99.90
40600;DHT22;26309;50.924;4.754;2023-05-07T07:42:29;18.20;99.90
40600;DHT22;26309;50.924;4.754;2023-05-07T07:44:55;18.00;99.90
40600;DHT22;26309;50.924;4.754;2023-05-07T07:47:23;17.90;99.90
40600;DHT22;26309;50.924;4.754;2023-05-07T07:49:49;17.90;99.90
40600;DHT22;26309;50.924;4.754;2023-05-07T07:52:15;17.90;99.90
40600;DHT22;26309;50.924;4.754;2023-05-07T07:54:41;18.20;99.90
40600;DHT22;26309;50.924;4.754;2023-05-07T07:57:07;18.10;99.90
40600;DHT22;26309;50.924;4.754;2023-05-07T07:59:32;17.90;99.90
40600;DHT22;26309;50.924;4.754;2023-05-07T08:01:58;18.10;99.90
40600;DHT22;26309;50.924;4.754;2023-05-07T08:04:24;18.20;99.90
40600;DHT22;26309;50.924;4.754;2023-05-07T08:06:50;18.10;99.90
40600;DHT22;26309;50.924;4.754;2023-05-07T08:09:16;17.90;99.90
40600;DHT22;26309;50.924;4.754;2023-05-07T08:11:42;17.80;99.90
40600;DHT22;26309;50.924;4.754;2023-05-07T08:14:07;17.50;99.90
40600;DHT22;26309;50.924;4.754;2023-05-07T08:16:33;17.30;99.90
40600;DHT22;26309;50.924;4.754;2023-05-07T08:18:59;17.20;99.90
40600;DHT22;26309;50.924;4.754;2023-05-07T08:21:25;17.10;99.90
40600;DHT22;26309;50.924;4.754;2023-05-07T08:23:51;17.20;99.90
40600;DHT22;26309;50.924;4.754;2023-05-07T08:26:17;17.30;99.90
40600;DHT22;26309;50.924;4.754;2023-05-07T08:28:43;17.40;99.90
40600;DHT22;26309;50.924;4.754;2023-05-07T08:31:09;17.50;99.90
40600;DHT22;26309;50.924;4.754;2023-05-07T08:33:34;17.50;99.90
40600;DHT22;26309;50.924;4.754;2023-05-07T08:36:00;17.80;99.90
40600;DHT22;26309;50.924;4.754;2023-05-07T08:38:26;17.70;99.90
40600;DHT22;26309;50.924;4.754;2023-05-07T08:40:52;17.60;99.90
40600;DHT22;26309;50.924;4.754;2023-05-07T08:43:18;17.70;99.90
40600;DHT22;26309;50.924;4.754;2023-05-07T08:45:45;17.80;99.90
40600;DHT22;26309;50.924;4.754;2023-05-07T08:48:16;18.20;99.90
40600;DHT22;26309;50.924;4.754;2023-05-07T08:50:42;18.40;99.90
40600;DHT22;26309;50.924;4.754;2023-05-07T08:53:08;18.20;99.90
40600;DHT22;26309;50.924;4.754;2023-05-07T08:55:34;18.30;99.90
40600;DHT22;26309;50.924;4.754;2023-05-07T08:58:03;18.50;99.90
40600;DHT22;26309;50.924;4.754;2023-05-07T09:00:29;18.70;99.90
40600;DHT22;26309;50.924;4.754;2023-05-07T09:02:56;18.30;99.90
40600;DHT22;26309;50.924;4.754;2023-05-07T09:05:21;18.10;99.90
40600;DHT22;26309;50.924;4.754;2023-05-07T09:07:47;18.00;99.90
40600;DHT22;26309;50.924;4.754;2023-05-07T09:10:13;17.80;99.90
40600;DHT22;26309;50.924;4.754;2023-05-07T09:12:39;17.50;99.90
40600;DHT22;26309;50.924;4.754;2023-05-07T09:15:06;17.70;99.90
40600;DHT22;26309;50.924;4.754;2023-05-07T09:17:32;17.90;99.90
40600;DHT22;26309;50.924;4.754;2023-05-07T09:20:05;18.20;99.90
40600;DHT22;26309;50.924;4.754;2023-05-07T09:22:33;18.50;99.90
40600;DHT22;26309;50.924;4.754;2023-05-07T09:24:59;18.80;99.90
40600;DHT22;26309;50.924;4.754;2023-05-07T09:27:26;19.20;99.90
40600;DHT22;26309;50.924;4.754;2023-05-07T09:29:51;18.70;99.90
40600;DHT22;26309;50.924;4.754;2023-05-07T09:32:17;18.80;99.90
40600;DHT22;26309;50.924;4.754;2023-05-07T09:34:43;19.00;99.90
40600;DHT22;26309;50.924;4.754;2023-05-07T09:37:13;18.80;99.90
40600;DHT22;26309;50.924;4.754;2023-05-07T09:39:40;18.80;99.90
40600;DHT22;26309;50.924;4.754;2023-05-07T09:42:06;18.80;99.90
40600;DHT22;26309;50.924;4.754;2023-05-07T09:44:33;18.60;99.90
40600;DHT22;26309;50.924;4.754;2023-05-07T09:47:00;18.50;99.90
40600;DHT22;26309;50.924;4.754;2023-05-07T09:49:29;18.70;99.90
40600;DHT22;26309;50.924;4.754;2023-05-07T09:51:55;18.80;99.90
40600;DHT22;26309;50.924;4.754;2023-05-07T09:54:22;18.50;99.90
40600;DHT22;26309;50.924;4.754;2023-05-07T09:56:48;18.50;99.90
40600;DHT22;26309;50.924;4.754;2023-05-07T09:59:16;19.00;99.90
40600;DHT22;26309;50.924;4.754;2023-05-07T10:01:43;18.80;99.90
40600;DHT22;26309;50.924;4.754;2023-05-07T10:04:10;18.60;99.90
40600;DHT22;26309;50.924;4.754;2023-05-07T10:06:37;18.70;99.90
40600;DHT22;26309;50.924;4.754;2023-05-07T10:09:06;18.50;99.90
40600;DHT22;26309;50.924;4.754;2023-05-07T10:11:35;18.60;99.90
40600;DHT22;26309;50.924;4.754;2023-05-07T10:14:02;18.80;99.90
40600;DHT22;26309;50.924;4.754;2023-05-07T10:16:32;18.90;99.90
40600;DHT22;26309;50.924;4.754;2023-05-07T10:19:05;19.20;99.90
40600;DHT22;26309;50.924;4.754;2023-05-07T10:21:35;19.30;99.90
40600;DHT22;26309;50.924;4.754;2023-05-07T10:24:35;19.10;99.90
40600;DHT22;26309;50.924;4.754;2023-05-07T10:27:02;18.60;99.90
40600;DHT22;26309;50.924;4.754;2023-05-07T10:32:25;18.90;99.90
40600;DHT22;26309;50.924;4.754;2023-05-07T10:34:56;18.70;99.90
40600;DHT22;26309;50.924;4.754;2023-05-07T10:37:24;18.90;99.90
40600;DHT22;26309;50.924;4.754;2023-05-07T10:39:52;18.80;99.90
40600;DHT22;26309;50.924;4.754;2023-05-07T10:42:18;18.80;99.90
40600;DHT22;26309;50.924;4.754;2023-05-07T10:44:44;18.60;99.90
40600;DHT22;26309;50.924;4.754;2023-05-07T10:47:15;19.00;99.90
40600;DHT22;26309;50.924;4.754;2023-05-07T10:52:17;19.60;99.90
40600;DHT22;26309;50.924;4.754;2023-05-07T10:54:44;19.50;99.90
40600;DHT22;26309;50.924;4.754;2023-05-07T10:57:33;19.50;99.90
40600;DHT22;26309;50.924;4.754;2023-05-07T11:00:40;19.30;99.90
40600;DHT22;26309;50.924;4.754;2023-05-07T11:05:30;19.50;99.90
40600;DHT22;26309;50.924;4.754;2023-05-07T11:07:58;19.60;99.90
40600;DHT22;26309;50.924;4.754;2023-05-07T11:13:12;19.50;99.90
40600;DHT22;26309;50.924;4.754;2023-05-07T11:15:41;19.40;99.90
40600;DHT22;26309;50.924;4.754;2023-05-07T11:18:09;19.10;99.90
40600;DHT22;26309;50.924;4.754;2023-05-07T11:20:55;19.20;99.90
40600;DHT22;26309;50.924;4.754;2023-05-07T11:26:08;19.20;99.90
40600;DHT22;26309;50.924;4.754;2023-05-07T11:28:41;19.50;99.90
40600;DHT22;26309;50.924;4.754;2023-05-07T11:31:08;19.80;99.90
40600;DHT22;26309;50.924;4.754;2023-05-07T11:33:35;19.40;99.90
40600;DHT22;26309;50.924;4.754;2023-05-07T11:36:03;19.50;99.90
40600;DHT22;26309;50.924;4.754;2023-05-07T11:38:37;19.90;99.90
40600;DHT22;26309;50.924;4.754;2023-05-07T11:41:04;20.00;99.90
40600;DHT22;26309;50.924;4.754;2023-05-07T11:43:34;20.20;99.90
40600;DHT22;26309;50.924;4.754;2023-05-07T11:46:08;19.90;99.90
40600;DHT22;26309;50.924;4.754;2023-05-07T11:48:34;19.90;99.90
40600;DHT22;26309;50.924;4.754;2023-05-07T11:51:05;20.10;99.90
40600;DHT22;26309;50.924;4.754;2023-05-07T11:53:38;20.00;99.90
40600;DHT22;26309;50.924;4.754;2023-05-07T11:56:09;20.20;99.90
40600;DHT22;26309;50.924;4.754;2023-05-07T11:58:35;20.10;99.90
40600;DHT22;26309;50.924;4.754;2023-05-07T12:01:01;20.10;99.90
40600;DHT22;26309;50.924;4.754;2023-05-07T12:03:28;20.10;99.90
40600;DHT22;26309;50.924;4.754;2023-05-07T12:05:54;20.30;99.90
40600;DHT22;26309;50.924;4.754;2023-05-07T12:08:21;20.50;99.90
40600;DHT22;26309;50.924;4.754;2023-05-07T12:10:49;20.70;99.90
40600;DHT22;26309;50.924;4.754;2023-05-07T12:13:16;20.90;99.90
40600;DHT22;26309;50.924;4.754;2023-05-07T12:15:43;21.10;99.90
40600;DHT22;26309;50.924;4.754;2023-05-07T12:18:10;21.30;99.90
40600;DHT22;26309;50.924;4.754;2023-05-07T12:20:36;21.30;99.90
40600;DHT22;26309;50.924;4.754;2023-05-07T12:23:02;21.30;99.90
40600;DHT22;26309;50.924;4.754;2023-05-07T12:25:39;21.10;99.90
40600;DHT22;26309;50.924;4.754;2023-05-07T12:28:07;21.20;99.90
40600;DHT22;26309;50.924;4.754;2023-05-07T12:30:39;21.20;99.90
40600;DHT22;26309;50.924;4.754;2023-05-07T12:33:05;21.00;99.90
40600;DHT22;26309;50.924;4.754;2023-05-07T12:35:36;20.80;99.90
40600;DHT22;26309;50.924;4.754;2023-05-07T12:38:02;20.70;99.90
40600;DHT22;26309;50.924;4.754;2023-05-07T12:40:47;20.90;99.90
40600;DHT22;26309;50.924;4.754;2023-05-07T12:43:26;21.30;99.90
40600;DHT22;26309;50.924;4.754;2023-05-07T12:46:00;21.40;99.90
40600;DHT22;26309;50.924;4.754;2023-05-07T12:48:28;21.70;99.90
40600;DHT22;26309;50.924;4.754;2023-05-07T12:50:55;21.50;99.90
40600;DHT22;26309;50.924;4.754;2023-05-07T12:53:23;21.60;99.90
40600;DHT22;26309;50.924;4.754;2023-05-07T12:55:51;21.90;99.90
40600;DHT22;26309;50.924;4.754;2023-05-07T12:58:19;21.80;99.90
40600;DHT22;26309;50.924;4.754;2023-05-07T13:00:48;21.50;99.90
40600;DHT22;26309;50.924;4.754;2023-05-07T13:03:22;20.80;99.90
40600;DHT22;26309;50.924;4.754;2023-05-07T13:05:49;20.80;99.90
40600;DHT22;26309;50.924;4.754;2023-05-07T13:08:33;21.00;99.90
40600;DHT22;26309;50.924;4.754;2023-05-07T13:11:00;21.30;99.90
40600;DHT22;26309;50.924;4.754;2023-05-07T13:13:53;21.20;99.90
40600;DHT22;26309;50.924;4.754;2023-05-07T13:16:19;21.20;99.90
40600;DHT22;26309;50.924;4.754;2023-05-07T13:18:45;21.30;99.90
40600;DHT22;26309;50.924;4.754;2023-05-07T13:21:11;21.40;99.90
40600;DHT22;26309;50.924;4.754;2023-05-07T13:23:38;21.40;99.90
40600;DHT22;26309;50.924;4.754;2023-05-07T13:26:04;21.70;99.90
40600;DHT22;26309;50.924;4.754;2023-05-07T13:28:30;21.90;99.90
40600;DHT22;26309;50.924;4.754;2023-05-07T13:30:59;22.00;99.90
40600;DHT22;26309;50.924;4.754;2023-05-07T13:33:25;22.00;99.90
40600;DHT22;26309;50.924;4.754;2023-05-07T13:35:51;22.20;99.90
40600;DHT22;26309;50.924;4.754;2023-05-07T13:38:17;22.40;99.90
40600;DHT22;26309;50.924;4.754;2023-05-07T13:40:43;22.40;99.90
40600;DHT22;26309;50.924;4.754;2023-05-07T13:43:09;21.80;99.90
40600;DHT22;26309;50.924;4.754;2023-05-07T13:45:36;21.90;99.90
40600;DHT22;26309;50.924;4.754;2023-05-07T13:48:02;21.80;99.90
40600;DHT22;26309;50.924;4.754;2023-05-07T13:50:28;21.60;99.90
40600;DHT22;26309;50.924;4.754;2023-05-07T13:52:55;21.80;99.90
40600;DHT22;26309;50.924;4.754;2023-05-07T13:55:23;21.80;99.90
40600;DHT22;26309;50.924;4.754;2023-05-07T13:57:55;22.10;99.90
40600;DHT22;26309;50.924;4.754;2023-05-07T14:00:22;22.00;99.90
40600;DHT22;26309;50.924;4.754;2023-05-07T14:02:52;22.00;99.90
40600;DHT22;26309;50.924;4.754;2023-05-07T14:05:18;22.00;99.90
40600;DHT22;26309;50.924;4.754;2023-05-07T14:07:44;22.10;99.90
40600;DHT22;26309;50.924;4.754;2023-05-07T14:10:10;22.20;99.90
40600;DHT22;26309;50.924;4.754;2023-05-07T14:12:36;22.20;99.90
40600;DHT22;26309;50.924;4.754;2023-05-07T14:15:03;22.10;99.90
40600;DHT22;26309;50.924;4.754;2023-05-07T14:17:29;22.10;99.90
40600;DHT22;26309;50.924;4.754;2023-05-07T14:19:54;21.90;99.90
40600;DHT22;26309;50.924;4.754;2023-05-07T14:22:22;21.80;99.90
40600;DHT22;26309;50.924;4.754;2023-05-07T14:24:49;21.70;99.90
40600;DHT22;26309;50.924;4.754;2023-05-07T14:27:15;21.90;99.90
40600;DHT22;26309;50.924;4.754;2023-05-07T14:29:41;22.00;99.90
40600;DHT22;26309;50.924;4.754;2023-05-07T14:32:08;22.00;99.90
40600;DHT22;26309;50.924;4.754;2023-05-07T14:34:34;21.80;99.90
40600;DHT22;26309;50.924;4.754;2023-05-07T14:37:00;21.70;99.90
40600;DHT22;26309;50.924;4.754;2023-05-07T14:39:27;21.70;99.90
40600;DHT22;26309;50.924;4.754;2023-05-07T14:41:53;21.60;99.90
40600;DHT22;26309;50.924;4.754;2023-05-07T14:44:20;21.50;99.90
40600;DHT22;26309;50.924;4.754;2023-05-07T14:46:46;21.50;99.90
40600;DHT22;26309;50.924;4.754;2023-05-07T14:49:13;21.70;99.90
40600;DHT22;26309;50.924;4.754;2023-05-07T14:51:44;21.80;99.90
40600;DHT22;26309;50.924;4.754;2023-05-07T14:54:10;21.50;99.90
40600;DHT22;26309;50.924;4.754;2023-05-07T14:56:36;21.60;99.90
40600;DHT22;26309;50.924;4.754;2023-05-07T14:59:03;21.80;99.90
40600;DHT22;26309;50.924;4.754;2023-05-07T15:01:29;22.00;99.90
40600;DHT22;26309;50.924;4.754;2023-05-07T15:03:55;22.10;99.90
40600;DHT22;26309;50.924;4.754;2023-05-07T15:06:21;21.90;99.90
40600;DHT22;26309;50.924;4.754;2023-05-07T15:08:47;21.80;99.90
40600;DHT22;26309;50.924;4.754;2023-05-07T15:11:16;21.80;99.90
40600;DHT22;26309;50.924;4.754;2023-05-07T15:13:43;21.60;99.90
40600;DHT22;26309;50.924;4.754;2023-05-07T15:16:09;21.50;99.90
40600;DHT22;26309;50.924;4.754;2023-05-07T15:18:35;21.60;99.90
40600;DHT22;26309;50.924;4.754;2023-05-07T15:21:01;21.70;99.90
40600;DHT22;26309;50.924;4.754;2023-05-07T15:23:27;21.90;99.90
40600;DHT22;26309;50.924;4.754;2023-05-07T15:25:53;22.00;99.90
40600;DHT22;26309;50.924;4.754;2023-05-07T15:28:19;21.90;99.90
40600;DHT22;26309;50.924;4.754;2023-05-07T15:30:45;21.90;99.90
40600;DHT22;26309;50.924;4.754;2023-05-07T15:33:11;22.00;99.90
40600;DHT22;26309;50.924;4.754;2023-05-07T15:35:37;22.00;99.90
40600;DHT22;26309;50.924;4.754;2023-05-07T15:38:03;21.90;99.90
40600;DHT22;26309;50.924;4.754;2023-05-07T15:40:30;21.70;99.90
40600;DHT22;26309;50.924;4.754;2023-05-07T15:42:56;21.60;99.90